Spearfish, SD

6:38 AM MDT on September 25, 2016 (GMT -0600)
Black Hills-Ice | | Change Station
Active Advisory: Wind Advisory

Elev 3898 ft 44.48 °N, 103.78 °W | Updated 43 minutes ago

Clear
Clear
46 °F
Feels Like 40 °F
N
16
Wind Variable Wind from West
Gusts 25 mph

Today
High -- | Low -- °F
--% Chance of Precip.
Yesterday
High -- | Low -- °F
Precip. -- in
Pressure 30.31 in
Visibility 10.0 miles
Clouds Clear
Windchill 40 °F
Dew Point 36 °F
Humidity 66%
Rainfall 0.12 in
Snow Depth Not available.
6:46 AM 6:45 PM
Waning Crescent, 28% visible
METAR KSPF 251155Z AUTO 28014G22KT 10SM CLR 08/02 A3031 RMK AO2
Pressure 30.31 in
Visibility 10.0 miles
Clouds Clear
Windchill 40 °F
Dew Point 36 °F
Humidity 66%
Rainfall 0.12 in
Snow Depth Not available.
6:46 AM 6:45 PM
Waning Crescent, 28% visible
METAR KSPF 251155Z AUTO 28014G22KT 10SM CLR 08/02 A3031 RMK AO2

10-Day Weather Forecast

Almanac

Astronomy

Sep. 25, 2016 Rise Set
Actual Time
Civil Twilight
Nautical Twilight
Astronomical Twilight
Moon
Length of Visible Light
Length of Day
Tomorrow will be .
, % of the Moon is Illuminated

Today's Extremes

State Highs State Lows

Community

WunderPhotos

Upload Photos

1,941,583 photos uploaded!

WunderBlog® & News

Nearby

Air Quality

  Air Quality AQ Index Pollutant
Not available.

Snow Depth

Station Depth Elevation

Earthquake Activity

City Distance Mag. Time & Date
Minimum magnitude displayed is 2.5.

Coastal Water Temperatures

Place Temperature

Stations

Nearby Weather Stations

Station Location Temp. Windchill Dew Point Humidity Wind Precip. Elev Updated Type
                   

Watches & Warnings

Wind Advisory
Issued: 2:42 AM MDT Sep. 25, 2016 – National Weather Service

... Wind Advisory remains in effect until 6 PM MDT this evening...

* timing... gusty northwest winds will continue through the
afternoon. Winds will diminish early this evening.

* Winds... northwest 25 to 35 mph with gusts up to 50 mph.

* Impacts... sudden wind gusts can cause drivers to lose
control... especially in lightweight or high profile vehicles.
Strong winds can cause blowing dust... reduced visibility... and
flying debris.

Precautionary/preparedness actions...

A Wind Advisory means 30 mph winds... or gusts over 45 mph... are
expected or occurring.